Time;durP1;ratioP1;P1;durP2;ratioP2;P2;SDS_P1;SDS_P2;PMS_P1;PMS_P2;Temp;Humidity;BMP_temperature;BMP_pressure;BME280_temperature;BME280_humidity;BME280_pressure;Samples;Min_cycle;Max_cycle;Signal;HPM_P1;HPM_P2
2023/04/08 00:02:30;;;;;;;17.20;11.10;;;22.80;57.30;;;;;;230090;1268;22174;-52
2023/04/08 00:07:36;;;;;;;16.60;11.40;;;23.10;56.60;;;;;;223450;1261;25274;-52
2023/04/08 00:12:40;;;;;;;14.00;11.10;;;23.00;56.30;;;;;;222215;1258;22620;-50
2023/04/08 00:17:44;;;;;;;22.50;12.60;;;22.90;56.70;;;;;;223630;1263;22525;-50
2023/04/08 00:22:49;;;;;;;16.90;10.80;;;22.80;56.80;;;;;;229795;1263;22649;-52
2023/04/08 00:27:53;;;;;;;16.10;11.30;;;22.80;56.60;;;;;;222208;1264;25242;-52
2023/04/08 00:32:57;;;;;;;14.00;10.40;;;22.70;56.90;;;;;;222464;1259;23886;-56
2023/04/08 00:38:02;;;;;;;14.70;10.60;;;22.50;57.30;;;;;;222206;1265;24187;-54
2023/04/08 00:43:06;;;;;;;14.20;10.00;;;22.40;57.70;;;;;;222252;1263;22790;-53
2023/04/08 00:48:10;;;;;;;13.90;10.50;;;22.30;57.80;;;;;;222568;1263;22628;-55
2023/04/08 00:53:17;;;;;;;13.80;10.10;;;22.20;58.30;;;;;;222235;1263;25482;-51
2023/04/08 00:58:21;;;;;;;14.70;9.70;;;22.10;57.80;;;;;;222143;1255;22563;-51
2023/04/08 01:03:46;;;;;;;14.00;9.60;;;22.10;57.80;;;;;;222372;1254;25395;-52
2023/04/08 01:08:51;;;;;;;11.30;9.50;;;22.10;57.90;;;;;;222106;1261;22992;-56
2023/04/08 01:13:57;;;;;;;12.70;10.00;;;22.00;58.10;;;;;;222027;1255;24219;-49
2023/04/08 01:19:01;;;;;;;10.90;8.90;;;22.00;57.60;;;;;;223793;1262;25302;-49
2023/04/08 01:24:29;;;;;;;13.70;9.60;;;22.00;57.70;;;;;;227429;1263;25894;-52
2023/04/08 01:29:34;;;;;;;9.80;8.30;;;22.00;57.40;;;;;;222235;1255;24327;-52
2023/04/08 01:34:42;;;;;;;12.50;8.60;;;22.00;57.40;;;;;;222506;1264;22618;-51
2023/04/08 01:39:48;;;;;;;11.10;8.00;;;21.90;57.40;;;;;;222391;1262;22781;-52
2023/04/08 01:44:56;;;;;;;9.10;8.20;;;21.90;57.50;;;;;;222238;1267;22520;-51
2023/04/08 01:50:02;;;;;;;10.40;8.80;;;21.80;57.60;;;;;;222282;1267;24209;-51
2023/04/08 01:55:07;;;;;;;13.50;8.80;;;21.80;57.60;;;;;;222195;1265;22563;-52
2023/04/08 02:00:13;;;;;;;10.20;8.10;;;21.70;58.10;;;;;;222234;1263;22626;-51
2023/04/08 02:05:24;;;;;;;11.90;8.60;;;21.70;57.50;;;;;;222463;1262;22501;-52
2023/04/08 02:10:28;;;;;;;8.60;7.60;;;21.70;57.40;;;;;;222187;1258;22757;-55
2023/04/08 02:15:36;;;;;;;9.80;7.90;;;21.70;57.40;;;;;;222248;1262;22527;-52
2023/04/08 02:20:47;;;;;;;8.80;7.60;;;21.60;57.50;;;;;;222365;1265;24180;-54
2023/04/08 02:25:54;;;;;;;10.10;7.90;;;21.60;57.40;;;;;;222368;1263;24311;-55
2023/04/08 02:31:04;;;;;;;9.30;7.40;;;21.60;57.50;;;;;;222199;1263;22640;-57
2023/04/08 02:36:11;;;;;;;10.80;8.40;;;21.60;57.70;;;;;;222335;1262;24358;-53
2023/04/08 02:41:16;;;;;;;10.40;7.90;;;21.60;57.30;;;;;;222539;1262;24334;-51
2023/04/08 02:46:20;;;;;;;8.40;6.40;;;22.00;57.00;;;;;;222446;1254;22701;-56
2023/04/08 02:51:26;;;;;;;9.60;7.30;;;22.10;56.60;;;;;;222472;1255;22519;-50
2023/04/08 02:56:30;;;;;;;8.70;6.80;;;22.50;56.60;;;;;;222290;1251;22592;-47
2023/04/08 03:01:34;;;;;;;7.70;6.90;;;22.70;56.00;;;;;;222759;1261;24200;-46
2023/04/08 03:06:39;;;;;;;9.50;7.50;;;22.90;54.90;;;;;;229593;1264;22576;-48
2023/04/08 03:11:43;;;;;;;8.90;6.80;;;23.00;54.40;;;;;;222187;1248;22513;-52
2023/04/08 03:16:48;;;;;;;8.40;6.90;;;23.10;54.20;;;;;;222405;1264;25224;-47
2023/04/08 03:21:52;;;;;;;7.30;6.10;;;23.10;54.50;;;;;;222244;1264;25296;-46
2023/04/08 03:26:56;;;;;;;6.80;6.10;;;23.00;54.50;;;;;;222259;1255;22516;-49
2023/04/08 03:32:00;;;;;;;7.50;6.20;;;23.00;54.60;;;;;;222527;1254;22731;-48
2023/04/08 03:37:05;;;;;;;6.80;5.80;;;23.00;54.40;;;;;;222405;1263;22606;-46
2023/04/08 03:42:09;;;;;;;6.70;6.00;;;23.00;54.30;;;;;;222159;1258;23883;-47
2023/04/08 03:47:13;;;;;;;6.90;5.70;;;23.00;54.40;;;;;;222267;1267;24264;-50
2023/04/08 03:52:17;;;;;;;6.20;5.60;;;23.10;54.20;;;;;;222419;1264;22515;-46
2023/04/08 03:57:21;;;;;;;6.10;5.40;;;23.10;54.20;;;;;;222447;1269;22591;-49
2023/04/08 04:02:26;;;;;;;6.80;5.70;;;23.20;54.00;;;;;;222274;1258;22510;-46
2023/04/08 04:07:30;;;;;;;7.00;5.60;;;23.20;53.90;;;;;;222354;1267;22634;-50
2023/04/08 04:12:34;;;;;;;7.40;5.70;;;23.30;54.20;;;;;;222526;1264;22941;-51
2023/04/08 04:17:39;;;;;;;6.90;6.10;;;23.30;53.70;;;;;;222326;1264;22619;-48
2023/04/08 04:22:43;;;;;;;6.20;5.60;;;23.30;53.50;;;;;;222420;1259;22767;-50
2023/04/08 04:27:48;;;;;;;5.40;4.60;;;23.40;53.60;;;;;;222503;1264;24018;-47
2023/04/08 04:32:52;;;;;;;5.40;4.90;;;23.40;53.50;;;;;;222507;1254;22781;-49
2023/04/08 04:37:56;;;;;;;5.70;5.20;;;23.40;53.30;;;;;;222359;1262;22638;-46
2023/04/08 04:43:00;;;;;;;6.20;5.60;;;23.30;53.20;;;;;;222310;1265;22568;-50
2023/04/08 04:48:05;;;;;;;6.70;5.60;;;23.30;53.70;;;;;;222542;1254;22527;-46
2023/04/08 04:53:09;;;;;;;5.00;4.50;;;23.20;53.90;;;;;;222345;1254;22599;-52
2023/04/08 04:58:14;;;;;;;5.20;4.80;;;23.10;53.90;;;;;;222462;1254;22773;-49
2023/04/08 05:03:18;;;;;;;5.70;5.20;;;23.10;54.10;;;;;;222541;1255;24190;-46
2023/04/08 05:08:22;;;;;;;5.60;5.10;;;23.00;54.20;;;;;;222422;1262;22527;-47
2023/04/08 05:13:29;;;;;;;8.20;5.50;;;23.00;54.60;;;;;;222035;1254;25331;-47
2023/04/08 05:18:33;;;;;;;4.90;4.50;;;22.80;54.70;;;;;;222355;1263;22515;-46
2023/04/08 05:23:37;;;;;;;5.30;4.80;;;22.70;54.60;;;;;;222598;1254;22515;-46
2023/04/08 05:28:41;;;;;;;6.80;5.00;;;22.70;54.80;;;;;;222344;1253;24267;-49
2023/04/08 05:33:46;;;;;;;5.70;5.20;;;22.60;55.00;;;;;;222410;1255;22638;-47
2023/04/08 05:38:50;;;;;;;5.30;4.80;;;22.50;55.10;;;;;;222415;1254;22533;-50
2023/04/08 05:43:55;;;;;;;5.20;4.80;;;22.50;55.40;;;;;;222520;1254;22517;-45
2023/04/08 05:48:59;;;;;;;4.80;4.20;;;22.40;54.90;;;;;;222543;1262;25690;-48
2023/04/08 05:54:03;;;;;;;6.20;5.60;;;22.40;55.20;;;;;;222742;1254;23913;-54
2023/04/08 05:59:07;;;;;;;6.30;5.60;;;22.30;55.30;;;;;;222404;1254;22615;-53
2023/04/08 06:04:11;;;;;;;6.10;5.50;;;22.30;55.30;;;;;;222321;1260;22992;-51
2023/04/08 06:09:15;;;;;;;5.20;4.80;;;22.30;55.20;;;;;;222379;1247;22718;-51
2023/04/08 06:14:19;;;;;;;4.60;4.10;;;22.20;55.30;;;;;;222504;1262;23894;-55
2023/04/08 06:19:24;;;;;;;5.40;4.70;;;22.20;55.30;;;;;;222424;1254;24189;-50
2023/04/08 06:24:29;;;;;;;5.40;4.90;;;22.10;55.40;;;;;;222387;1254;22524;-51
2023/04/08 06:29:32;;;;;;;5.50;5.00;;;22.10;55.50;;;;;;222176;1264;156502;-50
2023/04/08 06:34:37;;;;;;;5.30;4.30;;;22.10;55.80;;;;;;222418;1262;22512;-56
2023/04/08 06:39:41;;;;;;;4.80;4.40;;;22.00;55.50;;;;;;222558;1254;22514;-64
2023/04/08 06:44:45;;;;;;;6.20;4.70;;;22.00;56.00;;;;;;222985;1253;22504;-68
2023/04/08 06:49:49;;;;;;;6.60;4.50;;;22.00;55.60;;;;;;222446;1260;22922;-64
2023/04/08 06:54:53;;;;;;;13.50;4.60;;;22.00;55.90;;;;;;222462;1266;22508;-65
2023/04/08 06:59:59;;;;;;;6.50;4.50;;;22.00;55.90;;;;;;222638;1269;24318;-63
2023/04/08 07:05:04;;;;;;;5.70;4.70;;;21.90;55.80;;;;;;222627;1260;22515;-64
2023/04/08 07:10:08;;;;;;;9.80;5.10;;;21.90;55.90;;;;;;222507;1255;24227;-64
2023/04/08 07:15:14;;;;;;;80.50;57.90;;;21.90;55.10;;;;;;222366;1255;22497;-58
2023/04/08 07:20:21;;;;;;;82.00;55.50;;;21.80;56.00;;;;;;222420;1254;22537;-61
2023/04/08 07:25:26;;;;;;;109.50;72.20;;;21.80;56.50;;;;;;222496;1260;23655;-62
2023/04/08 07:30:30;;;;;;;89.20;63.90;;;21.80;57.10;;;;;;222292;1263;22618;-62
2023/04/08 07:35:34;;;;;;;78.10;55.10;;;21.90;58.40;;;;;;222813;1262;22637;-63
2023/04/08 07:40:39;;;;;;;82.20;55.20;;;22.00;58.80;;;;;;222622;1254;24249;-53
2023/04/08 07:45:43;;;;;;;72.90;49.30;;;21.90;59.50;;;;;;222549;1255;24218;-53
2023/04/08 07:50:47;;;;;;;79.00;46.50;;;22.00;59.10;;;;;;222255;1255;24469;-53
2023/04/08 07:56:14;;;;;;;67.80;45.40;;;21.90;58.90;;;;;;222395;1255;23900;-53
2023/04/08 08:01:21;;;;;;;62.60;44.40;;;21.90;58.50;;;;;;222380;1255;24505;-54
2023/04/08 08:06:26;;;;;;;61.10;43.30;;;21.90;58.80;;;;;;222109;1262;25464;-51
2023/04/08 08:11:32;;;;;;;60.10;41.80;;;21.70;59.60;;;;;;222626;1249;22710;-59
2023/04/08 08:16:41;;;;;;;59.60;41.90;;;21.70;59.10;;;;;;222465;1254;22512;-53
2023/04/08 08:21:45;;;;;;;53.50;40.10;;;21.60;59.40;;;;;;222327;1255;25384;-56
2023/04/08 08:26:51;;;;;;;53.40;39.60;;;21.60;59.20;;;;;;222348;1256;24197;-54
2023/04/08 08:31:58;;;;;;;57.20;37.70;;;21.70;59.30;;;;;;222244;1246;22636;-54
2023/04/08 08:37:07;;;;;;;59.60;37.80;;;21.70;58.80;;;;;;222216;1262;25407;-52
2023/04/08 08:42:25;;;;;;;53.00;37.40;;;21.80;58.30;;;;;;222155;1262;22762;-54
2023/04/08 08:47:32;;;;;;;50.90;36.10;;;22.10;58.10;;;;;;222194;1262;24253;-55
2023/04/08 08:52:36;;;;;;;47.90;34.80;;;22.30;58.10;;;;;;222275;1249;24363;-54
2023/04/08 08:57:40;;;;;;;51.20;34.40;;;22.50;56.80;;;;;;222207;1254;24232;-55
2023/04/08 09:02:47;;;;;;;46.10;32.30;;;22.70;56.20;;;;;;222329;1254;25246;-53
2023/04/08 09:07:51;;;;;;;42.20;32.50;;;22.70;56.60;;;;;;222346;1246;23940;-49
2023/04/08 09:12:56;;;;;;;37.10;29.70;;;22.80;56.50;;;;;;221890;1255;24234;-51
2023/04/08 09:18:01;;;;;;;41.60;29.80;;;22.80;55.90;;;;;;222178;1255;22524;-50
2023/04/08 09:23:05;;;;;;;41.70;28.40;;;22.80;56.40;;;;;;222248;1246;22508;-59
2023/04/08 09:28:21;;;;;;;49.10;28.00;;;22.90;55.70;;;;;;222424;1263;22520;-58
2023/04/08 09:33:31;;;;;;;38.90;26.90;;;23.00;55.80;;;;;;222340;1262;25304;-53
2023/04/08 09:38:35;;;;;;;39.50;28.10;;;23.10;55.70;;;;;;222455;1262;24338;-53
2023/04/08 09:43:50;;;;;;;37.10;27.40;;;23.20;55.10;;;;;;222487;1262;23144;-53
2023/04/08 09:49:24;;;;;;;41.80;26.70;;;23.20;55.50;;;;;;222132;1255;25221;-53
2023/04/08 09:54:51;;;;;;;37.00;25.70;;;23.20;55.30;;;;;;222075;1255;22638;-54
2023/04/08 10:00:04;;;;;;;37.00;25.00;;;23.10;55.00;;;;;;222665;1262;22513;-56
2023/04/08 10:05:17;;;;;;;35.10;23.90;;;22.90;55.40;;;;;;222330;1255;22517;-56
2023/04/08 10:10:26;;;;;;;43.60;23.30;;;22.80;55.30;;;;;;222393;1254;22531;-57
2023/04/08 10:15:31;;;;;;;35.30;22.70;;;22.80;55.90;;;;;;222686;1262;22514;-59
2023/04/08 10:20:36;;;;;;;38.00;22.80;;;22.80;55.90;;;;;;222326;1262;25396;-63
2023/04/08 10:25:44;;;;;;;32.60;22.30;;;22.70;54.80;;;;;;222324;1262;25453;-62
2023/04/08 10:30:56;;;;;;;34.90;22.50;;;22.60;54.70;;;;;;222508;1255;25387;-57
2023/04/08 10:36:01;;;;;;;32.00;21.80;;;22.60;54.90;;;;;;222168;1265;22514;-59
2023/04/08 10:41:05;;;;;;;30.30;22.20;;;22.60;54.90;;;;;;222492;1269;25348;-60
2023/04/08 10:46:10;;;;;;;31.80;21.40;;;22.60;54.80;;;;;;222555;1269;22536;-58
2023/04/08 10:51:15;;;;;;;28.40;20.40;;;22.60;55.20;;;;;;222600;1262;22630;-59
2023/04/08 10:56:19;;;;;;;29.50;20.70;;;22.50;55.30;;;;;;222446;1262;25317;-57
2023/04/08 11:01:24;;;;;;;34.40;21.10;;;22.50;55.20;;;;;;222788;1261;25476;-58
2023/04/08 11:06:29;;;;;;;31.90;21.10;;;22.50;55.90;;;;;;222454;1254;22526;-58
2023/04/08 11:11:33;;;;;;;32.70;20.80;;;22.60;57.80;;;;;;222315;1260;22532;-61
2023/04/08 11:16:38;;;;;;;28.30;20.20;;;22.60;57.60;;;;;;222448;1260;26618;-63
2023/04/08 11:21:42;;;;;;;26.70;20.50;;;22.50;57.10;;;;;;222527;1254;24197;-62
2023/04/08 11:26:46;;;;;;;29.20;20.50;;;22.40;56.80;;;;;;222302;1262;22508;-56
2023/04/08 11:31:50;;;;;;;29.00;21.10;;;22.40;56.70;;;;;;222476;1262;25348;-58
2023/04/08 11:36:57;;;;;;;27.60;20.20;;;22.40;56.50;;;;;;222107;1253;24235;-61
2023/04/08 11:42:01;;;;;;;25.80;19.60;;;22.30;56.50;;;;;;222615;1262;22533;-60
2023/04/08 11:47:06;;;;;;;28.40;20.30;;;22.30;56.40;;;;;;222519;1255;22508;-63
2023/04/08 11:52:10;;;;;;;21.80;18.10;;;22.40;56.20;;;;;;222538;1246;22839;-60
2023/04/08 11:57:26;;;;;;;25.40;19.60;;;22.30;56.20;;;;;;222321;1260;24268;-62
2023/04/08 12:02:30;;;;;;;23.60;18.80;;;22.20;56.40;;;;;;222257;1265;22504;-59
2023/04/08 12:07:35;;;;;;;23.30;19.30;;;22.20;56.60;;;;;;222259;1263;22529;-59
2023/04/08 12:12:39;;;;;;;23.30;17.80;;;22.20;56.40;;;;;;222665;1260;24254;-63
2023/04/08 12:17:44;;;;;;;21.70;18.20;;;22.20;56.50;;;;;;222466;1257;22521;-63
2023/04/08 12:22:48;;;;;;;23.10;17.90;;;22.20;56.40;;;;;;222612;1262;22511;-61
2023/04/08 12:27:52;;;;;;;22.50;17.30;;;22.10;56.40;;;;;;222576;1265;22535;-61
2023/04/08 12:32:57;;;;;;;19.10;17.10;;;22.10;56.40;;;;;;222520;1265;22667;-61
2023/04/08 12:38:01;;;;;;;23.70;17.40;;;22.10;56.40;;;;;;222315;1255;22561;-60
2023/04/08 12:43:05;;;;;;;20.50;16.90;;;22.10;56.60;;;;;;222614;1262;24177;-61
2023/04/08 12:48:10;;;;;;;19.50;15.70;;;22.10;56.20;;;;;;222202;1258;24176;-64
2023/04/08 12:53:14;;;;;;;20.70;16.90;;;22.10;56.10;;;;;;222466;1262;22511;-63
2023/04/08 12:58:18;;;;;;;19.30;16.60;;;22.10;56.30;;;;;;222497;1262;22661;-62
2023/04/08 13:03:27;;;;;;;20.90;15.90;;;22.00;56.20;;;;;;222496;1262;25301;-63
2023/04/08 13:08:31;;;;;;;20.30;15.70;;;22.10;56.30;;;;;;222332;1262;24230;-59
2023/04/08 13:13:35;;;;;;;19.90;16.40;;;22.00;56.10;;;;;;222471;1255;24206;-61
2023/04/08 13:18:40;;;;;;;19.20;15.50;;;22.00;56.10;;;;;;222519;1256;24232;-65
2023/04/08 13:23:45;;;;;;;19.60;15.40;;;22.00;56.10;;;;;;222639;1262;22637;-63
2023/04/08 13:28:51;;;;;;;19.20;15.20;;;22.00;55.90;;;;;;222346;1263;22523;-61
2023/04/08 13:34:00;;;;;;;19.40;14.90;;;22.10;56.10;;;;;;222477;1265;23005;-58
2023/04/08 13:39:04;;;;;;;19.10;16.30;;;22.10;55.50;;;;;;222627;1252;23156;-62
2023/04/08 13:44:09;;;;;;;19.80;15.60;;;22.10;55.40;;;;;;222527;1262;24204;-64
2023/04/08 13:49:15;;;;;;;17.80;15.40;;;22.10;55.40;;;;;;222471;1262;25463;-62
2023/04/08 13:54:19;;;;;;;17.30;15.20;;;22.10;55.40;;;;;;222479;1262;22517;-67
2023/04/08 13:59:23;;;;;;;16.30;14.50;;;22.10;55.30;;;;;;222528;1261;22525;-58
2023/04/08 14:04:27;;;;;;;15.60;13.90;;;22.10;55.40;;;;;;222484;1265;22620;-58
2023/04/08 14:09:32;;;;;;;16.50;14.80;;;22.00;55.80;;;;;;222434;1269;23909;-58
2023/04/08 14:14:36;;;;;;;17.10;14.30;;;22.00;55.40;;;;;;222608;1261;22787;-64
2023/04/08 14:19:40;;;;;;;16.50;13.80;;;22.10;55.30;;;;;;222246;1269;25466;-61
2023/04/08 14:24:45;;;;;;;15.50;13.60;;;22.00;55.20;;;;;;222558;1262;25298;-61
2023/04/08 14:29:49;;;;;;;16.60;13.40;;;22.10;55.20;;;;;;222658;1261;24335;-66
2023/04/08 14:34:53;;;;;;;20.90;15.00;;;22.10;55.20;;;;;;222640;1262;22523;-60
2023/04/08 14:39:57;;;;;;;15.60;13.60;;;22.10;55.30;;;;;;222327;1263;22595;-59
2023/04/08 14:45:02;;;;;;;15.80;13.30;;;22.10;55.40;;;;;;222442;1263;24215;-59
2023/04/08 14:50:07;;;;;;;17.00;14.90;;;22.10;55.00;;;;;;222382;1262;22525;-61
2023/04/08 14:55:11;;;;;;;16.30;14.10;;;22.10;55.40;;;;;;222455;1269;22539;-63
2023/04/08 15:00:16;;;;;;;15.50;13.70;;;22.10;55.00;;;;;;222395;1255;22499;-58
2023/04/08 15:05:20;;;;;;;14.80;13.30;;;22.00;55.00;;;;;;222574;1265;25321;-62
2023/04/08 15:10:24;;;;;;;14.80;13.30;;;22.00;55.20;;;;;;222519;1259;24338;-58
2023/04/08 15:15:28;;;;;;;13.80;12.30;;;22.00;55.00;;;;;;222554;1255;25559;-58
2023/04/08 15:20:33;;;;;;;13.20;11.90;;;22.00;55.00;;;;;;222710;1262;25265;-59
2023/04/08 15:25:37;;;;;;;13.90;12.50;;;22.00;55.10;;;;;;222772;1269;22511;-63
2023/04/08 15:30:42;;;;;;;13.50;12.00;;;22.00;55.00;;;;;;222484;1262;24335;-64
2023/04/08 15:35:47;;;;;;;14.50;12.60;;;21.90;54.90;;;;;;222762;1246;24223;-63
2023/04/08 15:40:51;;;;;;;14.00;12.50;;;21.90;55.10;;;;;;222682;1259;22800;-59
2023/04/08 15:45:55;;;;;;;12.70;11.40;;;21.90;55.40;;;;;;222559;1262;25285;-58
2023/04/08 15:51:12;;;;;;;13.20;11.80;;;21.90;55.10;;;;;;222690;1269;26610;-59
2023/04/08 15:56:17;;;;;;;13.30;11.90;;;21.80;55.00;;;;;;222718;1263;22515;-54
2023/04/08 16:01:21;;;;;;;14.80;12.40;;;22.00;55.30;;;;;;222787;1253;24177;-59
2023/04/08 16:06:26;;;;;;;14.00;11.40;;;22.40;54.20;;;;;;222709;1265;22602;-58
2023/04/08 16:11:33;;;;;;;12.90;11.60;;;22.50;53.70;;;;;;223106;1269;22932;-57
2023/04/08 16:16:37;;;;;;;12.10;10.70;;;22.70;53.70;;;;;;223011;1262;22508;-57
2023/04/08 16:21:41;;;;;;;12.40;11.10;;;22.90;53.20;;;;;;223103;1263;25249;-59
2023/04/08 16:26:45;;;;;;;12.90;11.50;;;22.90;52.90;;;;;;223065;1265;22630;-59
2023/04/08 16:31:49;;;;;;;11.60;10.40;;;23.00;53.10;;;;;;222921;1263;22511;-57
2023/04/08 16:36:57;;;;;;;12.80;11.30;;;23.10;52.50;;;;;;222486;1256;22520;-60
2023/04/08 16:42:01;;;;;;;11.20;10.20;;;23.20;52.70;;;;;;222861;1262;24291;-59
2023/04/08 16:47:10;;;;;;;10.90;9.70;;;23.20;52.30;;;;;;222824;1267;23128;-59
2023/04/08 16:52:14;;;;;;;12.50;11.20;;;23.30;52.20;;;;;;222586;1263;25269;-59
2023/04/08 16:57:19;;;;;;;11.20;10.10;;;23.30;52.20;;;;;;222789;1256;22512;-59
2023/04/08 17:02:23;;;;;;;12.50;10.80;;;23.40;51.90;;;;;;222626;1265;22642;-59
2023/04/08 17:07:28;;;;;;;12.20;10.60;;;23.60;51.80;;;;;;224980;1262;22968;-57
2023/04/08 17:12:32;;;;;;;11.40;10.30;;;23.60;51.40;;;;;;228115;1262;22560;-56
2023/04/08 17:17:37;;;;;;;12.10;10.40;;;23.80;51.00;;;;;;227441;1260;22563;-60
2023/04/08 17:22:42;;;;;;;12.30;11.10;;;23.90;50.70;;;;;;223259;1262;24150;-60
2023/04/08 17:27:46;;;;;;;11.70;10.60;;;23.90;50.90;;;;;;223099;1268;24195;-64
2023/04/08 17:32:51;;;;;;;11.20;10.10;;;23.70;51.40;;;;;;223340;1265;22541;-59
2023/04/08 17:37:56;;;;;;;11.10;10.00;;;23.60;52.00;;;;;;223153;1246;23909;-57
2023/04/08 17:43:00;;;;;;;11.40;10.10;;;23.40;51.80;;;;;;223409;1260;24216;-56
2023/04/08 17:48:08;;;;;;;10.90;9.90;;;23.30;52.10;;;;;;223291;1256;22566;-57
2023/04/08 17:53:12;;;;;;;12.30;10.30;;;23.20;52.50;;;;;;223340;1265;25294;-58
2023/04/08 17:58:17;;;;;;;10.90;9.90;;;23.20;52.60;;;;;;222842;1266;22530;-59
2023/04/08 18:03:25;;;;;;;10.60;9.20;;;23.00;52.80;;;;;;222596;1269;23917;-57
2023/04/08 18:08:30;;;;;;;11.40;10.20;;;22.90;53.10;;;;;;222866;1263;25236;-60
2023/04/08 18:13:34;;;;;;;11.70;10.00;;;22.80;53.30;;;;;;222882;1245;23926;-57
2023/04/08 18:18:38;;;;;;;9.70;8.70;;;22.80;53.30;;;;;;223035;1255;24177;-57
2023/04/08 18:23:47;;;;;;;10.30;9.20;;;22.70;53.40;;;;;;223048;1262;22602;-59
2023/04/08 18:28:52;;;;;;;10.90;9.80;;;22.70;53.30;;;;;;222650;1265;163212;-57
2023/04/08 18:33:58;;;;;;;10.80;9.60;;;22.80;53.50;;;;;;222581;1265;22695;-57
2023/04/08 18:39:05;;;;;;;10.90;9.80;;;22.70;53.40;;;;;;222694;1269;22849;-57
2023/04/08 18:44:12;;;;;;;11.30;10.10;;;22.70;53.50;;;;;;222663;1263;22504;-59
2023/04/08 18:49:17;;;;;;;10.80;9.70;;;22.60;53.90;;;;;;222439;1262;22535;-60
2023/04/08 18:54:22;;;;;;;10.50;9.40;;;22.50;53.80;;;;;;222526;1264;24326;-58
2023/04/08 18:59:27;;;;;;;10.40;9.40;;;22.40;53.80;;;;;;222583;1263;22605;-58
2023/04/08 19:04:32;;;;;;;10.90;9.80;;;22.30;54.00;;;;;;222762;1262;22500;-58
2023/04/08 19:09:37;;;;;;;10.30;9.30;;;22.30;54.10;;;;;;222747;1261;22916;-57
2023/04/08 19:14:42;;;;;;;10.10;9.20;;;22.20;54.00;;;;;;222637;1268;25398;-58
2023/04/08 19:19:47;;;;;;;10.00;9.00;;;22.10;54.10;;;;;;222703;1263;25387;-64
2023/04/08 19:24:52;;;;;;;10.10;9.00;;;22.10;54.20;;;;;;222713;1263;25204;-57
2023/04/08 19:30:00;;;;;;;10.80;9.30;;;22.10;54.10;;;;;;222455;1265;24209;-58
2023/04/08 19:35:12;;;;;;;10.50;9.40;;;22.00;54.10;;;;;;222634;1253;25259;-59
2023/04/08 19:40:18;;;;;;;9.10;8.30;;;22.00;54.30;;;;;;222640;1263;24196;-56
2023/04/08 19:45:22;;;;;;;10.10;9.00;;;22.00;54.30;;;;;;222732;1265;26700;-64
2023/04/08 19:50:27;;;;;;;8.60;7.90;;;21.90;54.40;;;;;;222616;1269;24301;-58
2023/04/08 19:55:36;;;;;;;10.00;9.10;;;21.80;54.50;;;;;;222549;1269;22518;-58
2023/04/08 20:00:40;;;;;;;9.20;8.30;;;21.80;54.10;;;;;;222420;1269;22776;-62
2023/04/08 20:05:45;;;;;;;9.30;8.50;;;21.80;54.50;;;;;;222449;1262;22511;-59
2023/04/08 20:10:49;;;;;;;10.70;9.70;;;21.80;54.60;;;;;;222207;1265;24187;-65
2023/04/08 20:15:54;;;;;;;9.70;8.80;;;21.70;54.60;;;;;;222267;1262;24336;-57
2023/04/08 20:20:59;;;;;;;9.40;8.60;;;21.80;54.30;;;;;;222316;1256;22651;-63
2023/04/08 20:26:03;;;;;;;9.30;8.40;;;22.10;53.70;;;;;;222356;1265;22513;-59
2023/04/08 20:31:09;;;;;;;8.60;7.90;;;22.40;53.60;;;;;;222184;1260;25334;-62
2023/04/08 20:36:13;;;;;;;9.00;8.10;;;22.50;52.80;;;;;;222188;1262;22519;-62
2023/04/08 20:41:19;;;;;;;10.90;8.90;;;22.70;52.50;;;;;;222314;1266;22716;-58
2023/04/08 20:46:23;;;;;;;9.00;8.10;;;22.80;52.20;;;;;;222475;1259;24075;-60
2023/04/08 20:51:27;;;;;;;9.20;8.30;;;22.90;51.90;;;;;;222599;1257;24221;-56
2023/04/08 20:56:31;;;;;;;9.00;8.10;;;23.00;51.80;;;;;;222549;1260;24193;-57
2023/04/08 21:01:35;;;;;;;8.40;7.60;;;23.00;51.70;;;;;;222272;1262;22540;-57
2023/04/08 21:06:40;;;;;;;8.80;8.10;;;23.10;51.60;;;;;;222447;1256;22515;-59
2023/04/08 21:11:44;;;;;;;8.70;7.90;;;23.10;51.40;;;;;;222506;1269;25341;-59
2023/04/08 21:16:49;;;;;;;8.20;7.40;;;23.20;51.30;;;;;;222558;1261;24365;-63
2023/04/08 21:21:53;;;;;;;8.60;7.80;;;23.30;51.10;;;;;;222488;1263;23947;-59
2023/04/08 21:26:57;;;;;;;8.10;7.30;;;23.30;51.00;;;;;;222457;1254;22513;-61
2023/04/08 21:32:01;;;;;;;8.60;7.80;;;23.40;50.90;;;;;;222502;1262;22724;-62
2023/04/08 21:37:07;;;;;;;8.50;7.70;;;23.40;50.80;;;;;;222232;1266;24221;-58
2023/04/08 21:42:11;;;;;;;8.30;7.60;;;23.50;50.60;;;;;;222525;1267;26526;-59
2023/04/08 21:47:16;;;;;;;8.70;8.00;;;23.60;50.60;;;;;;222406;1267;22520;-57
2023/04/08 21:52:20;;;;;;;8.70;7.90;;;23.60;50.40;;;;;;222502;1261;22645;-60
2023/04/08 21:57:24;;;;;;;8.80;8.00;;;23.60;50.40;;;;;;222379;1265;26649;-58
2023/04/08 22:02:28;;;;;;;8.00;7.30;;;23.70;50.40;;;;;;222486;1269;22646;-59
2023/04/08 22:07:33;;;;;;;8.20;7.40;;;23.70;50.50;;;;;;222499;1269;22515;-61
2023/04/08 22:12:37;;;;;;;7.80;7.10;;;23.60;50.70;;;;;;222480;1263;24245;-58
2023/04/08 22:17:41;;;;;;;8.30;7.60;;;23.50;50.90;;;;;;222547;1254;22515;-62
2023/04/08 22:22:45;;;;;;;8.20;7.40;;;23.40;51.20;;;;;;222523;1254;22525;-57
2023/04/08 22:27:50;;;;;;;8.20;7.50;;;23.30;51.60;;;;;;222450;1255;22567;-58
2023/04/08 22:32:54;;;;;;;8.60;7.80;;;23.20;51.40;;;;;;222507;1262;24236;-58
2023/04/08 22:37:58;;;;;;;8.30;7.60;;;23.00;51.60;;;;;;222554;1262;24193;-57
2023/04/08 22:43:02;;;;;;;8.70;7.90;;;23.00;51.80;;;;;;222538;1254;25306;-56
2023/04/08 22:48:06;;;;;;;8.90;8.00;;;22.90;52.10;;;;;;222495;1263;22602;-59
2023/04/08 22:53:11;;;;;;;8.40;7.60;;;22.80;52.20;;;;;;222421;1254;22533;-61
2023/04/08 22:58:15;;;;;;;8.20;7.40;;;22.70;52.30;;;;;;222466;1255;25463;-58
2023/04/08 23:03:20;;;;;;;9.70;8.80;;;22.60;52.30;;;;;;222188;1257;23885;-59
2023/04/08 23:08:24;;;;;;;8.10;7.30;;;22.60;52.30;;;;;;222281;1262;22926;-63
2023/04/08 23:13:28;;;;;;;8.60;7.70;;;22.60;52.40;;;;;;222100;1258;23938;-62
2023/04/08 23:18:32;;;;;;;8.20;7.50;;;22.60;52.50;;;;;;222462;1256;24187;-59
2023/04/08 23:23:37;;;;;;;8.80;8.00;;;22.60;52.40;;;;;;222405;1264;24263;-57
2023/04/08 23:28:40;;;;;;;8.30;7.60;;;22.50;52.60;;;;;;222459;1263;22538;-61
2023/04/08 23:33:45;;;;;;;8.90;8.10;;;22.50;52.60;;;;;;222543;1261;22540;-63
2023/04/08 23:38:49;;;;;;;9.20;8.20;;;22.40;52.70;;;;;;222450;1264;22513;-63
2023/04/08 23:43:54;;;;;;;8.50;7.70;;;22.40;52.80;;;;;;222413;1260;22578;-60
2023/04/08 23:48:58;;;;;;;8.90;8.10;;;22.30;53.00;;;;;;222562;1260;24224;-60
2023/04/08 23:54:02;;;;;;;9.80;7.70;;;22.20;52.90;;;;;;222685;1263;22553;-56
2023/04/08 23:59:06;;;;;;;8.70;7.80;;;22.10;53.00;;;;;;222587;1254;25214;-60
